sensor_id;sensor_type;location;lat;lon;timestamp;P1;durP1;ratioP1;P2;durP2;ratioP2
15126;SDS011;7664;52.008;4.748;2022-09-01T00:02:27;1.73;;;0.90;;
15126;SDS011;7664;52.008;4.748;2022-09-01T00:04:57;1.67;;;0.88;;
15126;SDS011;7664;52.008;4.748;2022-09-01T00:07:25;0.98;;;0.68;;
15126;SDS011;7664;52.008;4.748;2022-09-01T00:09:55;1.20;;;0.90;;
15126;SDS011;7664;52.008;4.748;2022-09-01T00:12:23;2.58;;;0.98;;
15126;SDS011;7664;52.008;4.748;2022-09-01T00:14:52;1.10;;;0.80;;
15126;SDS011;7664;52.008;4.748;2022-09-01T00:17:20;1.08;;;0.80;;
15126;SDS011;7664;52.008;4.748;2022-09-01T00:19:48;2.85;;;1.00;;
15126;SDS011;7664;52.008;4.748;2022-09-01T00:22:18;2.08;;;1.00;;
15126;SDS011;7664;52.008;4.748;2022-09-01T00:24:46;0.80;;;0.77;;
15126;SDS011;7664;52.008;4.748;2022-09-01T00:27:15;1.42;;;0.88;;
15126;SDS011;7664;52.008;4.748;2022-09-01T00:29:44;0.82;;;0.65;;
15126;SDS011;7664;52.008;4.748;2022-09-01T00:32:13;1.25;;;0.80;;
15126;SDS011;7664;52.008;4.748;2022-09-01T00:34:41;1.73;;;0.80;;
15126;SDS011;7664;52.008;4.748;2022-09-01T00:37:08;1.95;;;0.90;;
15126;SDS011;7664;52.008;4.748;2022-09-01T00:39:38;1.73;;;0.77;;
15126;SDS011;7664;52.008;4.748;2022-09-01T00:42:06;1.80;;;0.95;;
15126;SDS011;7664;52.008;4.748;2022-09-01T00:44:35;3.28;;;1.20;;
15126;SDS011;7664;52.008;4.748;2022-09-01T00:47:05;2.85;;;0.90;;
15126;SDS011;7664;52.008;4.748;2022-09-01T00:49:34;0.80;;;0.65;;
15126;SDS011;7664;52.008;4.748;2022-09-01T00:52:07;1.73;;;1.00;;
15126;SDS011;7664;52.008;4.748;2022-09-01T00:54:40;3.08;;;0.88;;
15126;SDS011;7664;52.008;4.748;2022-09-01T00:57:11;0.98;;;0.70;;
15126;SDS011;7664;52.008;4.748;2022-09-01T00:59:41;4.60;;;1.00;;
15126;SDS011;7664;52.008;4.748;2022-09-01T01:02:12;2.55;;;1.15;;
15126;SDS011;7664;52.008;4.748;2022-09-01T01:04:41;0.85;;;0.77;;
15126;SDS011;7664;52.008;4.748;2022-09-01T01:07:09;2.17;;;1.10;;
15126;SDS011;7664;52.008;4.748;2022-09-01T01:09:41;1.80;;;0.82;;
15126;SDS011;7664;52.008;4.748;2022-09-01T01:12:10;2.15;;;1.08;;
15126;SDS011;7664;52.008;4.748;2022-09-01T01:14:38;1.25;;;0.93;;
15126;SDS011;7664;52.008;4.748;2022-09-01T01:17:11;1.35;;;1.13;;
15126;SDS011;7664;52.008;4.748;2022-09-01T01:19:40;1.20;;;0.90;;
15126;SDS011;7664;52.008;4.748;2022-09-01T01:22:31;3.40;;;1.02;;
15126;SDS011;7664;52.008;4.748;2022-09-01T01:25:24;2.15;;;1.10;;
15126;SDS011;7664;52.008;4.748;2022-09-01T01:28:01;2.83;;;1.05;;
15126;SDS011;7664;52.008;4.748;2022-09-01T01:30:31;1.98;;;1.05;;
15126;SDS011;7664;52.008;4.748;2022-09-01T01:33:00;3.72;;;1.20;;
15126;SDS011;7664;52.008;4.748;2022-09-01T01:35:29;1.15;;;1.02;;
15126;SDS011;7664;52.008;4.748;2022-09-01T01:37:58;1.60;;;1.02;;
15126;SDS011;7664;52.008;4.748;2022-09-01T01:40:29;1.50;;;0.90;;
15126;SDS011;7664;52.008;4.748;2022-09-01T01:42:57;2.80;;;1.15;;
15126;SDS011;7664;52.008;4.748;2022-09-01T01:45:26;1.15;;;0.90;;
15126;SDS011;7664;52.008;4.748;2022-09-01T01:47:55;3.33;;;1.10;;
15126;SDS011;7664;52.008;4.748;2022-09-01T01:50:24;2.90;;;1.10;;
15126;SDS011;7664;52.008;4.748;2022-09-01T01:52:54;2.00;;;1.33;;
15126;SDS011;7664;52.008;4.748;2022-09-01T01:55:26;1.33;;;1.08;;
15126;SDS011;7664;52.008;4.748;2022-09-01T01:57:57;1.27;;;1.17;;
15126;SDS011;7664;52.008;4.748;2022-09-01T02:00:26;1.73;;;1.13;;
15126;SDS011;7664;52.008;4.748;2022-09-01T02:02:57;0.98;;;0.80;;
15126;SDS011;7664;52.008;4.748;2022-09-01T02:05:26;2.95;;;0.95;;
15126;SDS011;7664;52.008;4.748;2022-09-01T02:07:58;1.67;;;0.95;;
15126;SDS011;7664;52.008;4.748;2022-09-01T02:10:31;1.40;;;1.00;;
15126;SDS011;7664;52.008;4.748;2022-09-01T02:13:03;2.72;;;1.30;;
15126;SDS011;7664;52.008;4.748;2022-09-01T02:15:33;3.38;;;0.73;;
15126;SDS011;7664;52.008;4.748;2022-09-01T02:18:09;1.60;;;1.10;;
15126;SDS011;7664;52.008;4.748;2022-09-01T02:20:39;1.10;;;1.00;;
15126;SDS011;7664;52.008;4.748;2022-09-01T02:23:07;2.00;;;1.08;;
15126;SDS011;7664;52.008;4.748;2022-09-01T02:25:38;2.05;;;1.20;;
15126;SDS011;7664;52.008;4.748;2022-09-01T02:28:31;1.23;;;1.13;;
15126;SDS011;7664;52.008;4.748;2022-09-01T02:31:02;3.95;;;1.40;;
15126;SDS011;7664;52.008;4.748;2022-09-01T02:33:31;1.80;;;1.00;;
15126;SDS011;7664;52.008;4.748;2022-09-01T02:36:01;3.40;;;1.33;;
15126;SDS011;7664;52.008;4.748;2022-09-01T02:38:30;3.35;;;1.30;;
15126;SDS011;7664;52.008;4.748;2022-09-01T02:40:59;1.48;;;0.90;;
15126;SDS011;7664;52.008;4.748;2022-09-01T02:43:29;2.13;;;1.20;;
15126;SDS011;7664;52.008;4.748;2022-09-01T02:45:59;1.48;;;1.10;;
15126;SDS011;7664;52.008;4.748;2022-09-01T02:48:29;2.45;;;1.52;;
15126;SDS011;7664;52.008;4.748;2022-09-01T02:51:01;2.08;;;1.38;;
15126;SDS011;7664;52.008;4.748;2022-09-01T02:53:31;3.35;;;1.27;;
15126;SDS011;7664;52.008;4.748;2022-09-01T02:56:00;1.67;;;1.10;;
15126;SDS011;7664;52.008;4.748;2022-09-01T02:58:36;1.20;;;1.10;;
15126;SDS011;7664;52.008;4.748;2022-09-01T03:01:12;1.50;;;1.20;;
15126;SDS011;7664;52.008;4.748;2022-09-01T03:03:46;1.67;;;1.25;;
15126;SDS011;7664;52.008;4.748;2022-09-01T03:06:15;2.92;;;1.45;;
15126;SDS011;7664;52.008;4.748;2022-09-01T03:08:46;1.65;;;1.02;;
15126;SDS011;7664;52.008;4.748;2022-09-01T03:11:14;2.88;;;1.33;;
15126;SDS011;7664;52.008;4.748;2022-09-01T03:13:44;3.95;;;1.23;;
15126;SDS011;7664;52.008;4.748;2022-09-01T03:16:12;3.03;;;1.17;;
15126;SDS011;7664;52.008;4.748;2022-09-01T03:18:41;2.67;;;1.83;;
15126;SDS011;7664;52.008;4.748;2022-09-01T03:21:09;4.45;;;1.48;;
15126;SDS011;7664;52.008;4.748;2022-09-01T03:23:42;2.13;;;1.08;;
15126;SDS011;7664;52.008;4.748;2022-09-01T03:26:11;2.13;;;1.27;;
15126;SDS011;7664;52.008;4.748;2022-09-01T03:28:39;4.32;;;1.30;;
15126;SDS011;7664;52.008;4.748;2022-09-01T03:31:09;1.95;;;1.42;;
15126;SDS011;7664;52.008;4.748;2022-09-01T03:33:37;3.67;;;1.42;;
15126;SDS011;7664;52.008;4.748;2022-09-01T03:36:06;2.03;;;1.10;;
15126;SDS011;7664;52.008;4.748;2022-09-01T03:38:40;1.33;;;0.95;;
15126;SDS011;7664;52.008;4.748;2022-09-01T03:41:09;3.58;;;1.75;;
15126;SDS011;7664;52.008;4.748;2022-09-01T03:43:39;2.97;;;1.33;;
15126;SDS011;7664;52.008;4.748;2022-09-01T03:46:14;3.28;;;1.40;;
15126;SDS011;7664;52.008;4.748;2022-09-01T03:48:48;1.85;;;1.20;;
15126;SDS011;7664;52.008;4.748;2022-09-01T03:51:17;2.33;;;1.35;;
15126;SDS011;7664;52.008;4.748;2022-09-01T03:53:49;1.90;;;1.02;;
15126;SDS011;7664;52.008;4.748;2022-09-01T03:56:19;5.78;;;1.63;;
15126;SDS011;7664;52.008;4.748;2022-09-01T03:58:49;1.98;;;1.30;;
15126;SDS011;7664;52.008;4.748;2022-09-01T04:01:19;2.25;;;1.20;;
15126;SDS011;7664;52.008;4.748;2022-09-01T04:03:47;1.33;;;1.17;;
15126;SDS011;7664;52.008;4.748;2022-09-01T04:06:17;3.17;;;1.25;;
15126;SDS011;7664;52.008;4.748;2022-09-01T04:08:48;3.08;;;1.52;;
15126;SDS011;7664;52.008;4.748;2022-09-01T04:11:22;1.90;;;1.30;;
15126;SDS011;7664;52.008;4.748;2022-09-01T04:13:50;1.58;;;1.15;;
15126;SDS011;7664;52.008;4.748;2022-09-01T04:16:21;2.08;;;1.10;;
15126;SDS011;7664;52.008;4.748;2022-09-01T04:19:09;1.20;;;1.08;;
15126;SDS011;7664;52.008;4.748;2022-09-01T04:21:45;2.45;;;1.50;;
15126;SDS011;7664;52.008;4.748;2022-09-01T04:24:15;2.25;;;1.10;;
15126;SDS011;7664;52.008;4.748;2022-09-01T04:26:44;3.53;;;1.45;;
15126;SDS011;7664;52.008;4.748;2022-09-01T04:29:14;2.65;;;1.38;;
15126;SDS011;7664;52.008;4.748;2022-09-01T04:31:45;1.60;;;1.20;;
15126;SDS011;7664;52.008;4.748;2022-09-01T04:34:18;2.47;;;1.20;;
15126;SDS011;7664;52.008;4.748;2022-09-01T04:36:47;3.17;;;1.52;;
15126;SDS011;7664;52.008;4.748;2022-09-01T04:39:19;2.08;;;1.30;;
15126;SDS011;7664;52.008;4.748;2022-09-01T04:41:48;2.65;;;1.50;;
15126;SDS011;7664;52.008;4.748;2022-09-01T04:44:16;1.88;;;1.15;;
15126;SDS011;7664;52.008;4.748;2022-09-01T04:46:46;1.95;;;1.42;;
15126;SDS011;7664;52.008;4.748;2022-09-01T04:49:16;3.13;;;1.40;;
15126;SDS011;7664;52.008;4.748;2022-09-01T04:51:48;1.55;;;1.40;;
15126;SDS011;7664;52.008;4.748;2022-09-01T04:54:19;3.08;;;1.17;;
15126;SDS011;7664;52.008;4.748;2022-09-01T04:56:49;1.90;;;1.52;;
15126;SDS011;7664;52.008;4.748;2022-09-01T04:59:18;1.77;;;1.20;;
15126;SDS011;7664;52.008;4.748;2022-09-01T05:01:50;3.80;;;1.40;;
15126;SDS011;7664;52.008;4.748;2022-09-01T05:04:22;1.98;;;1.73;;
15126;SDS011;7664;52.008;4.748;2022-09-01T05:06:53;1.42;;;1.20;;
15126;SDS011;7664;52.008;4.748;2022-09-01T05:09:26;1.40;;;0.98;;
15126;SDS011;7664;52.008;4.748;2022-09-01T05:11:56;2.70;;;1.77;;
15126;SDS011;7664;52.008;4.748;2022-09-01T05:14:41;2.25;;;1.30;;
15126;SDS011;7664;52.008;4.748;2022-09-01T05:17:15;1.67;;;1.05;;
15126;SDS011;7664;52.008;4.748;2022-09-01T05:19:46;2.75;;;1.33;;
15126;SDS011;7664;52.008;4.748;2022-09-01T05:22:16;2.15;;;1.20;;
15126;SDS011;7664;52.008;4.748;2022-09-01T05:24:47;1.80;;;1.40;;
15126;SDS011;7664;52.008;4.748;2022-09-01T05:27:20;1.50;;;1.20;;
15126;SDS011;7664;52.008;4.748;2022-09-01T05:29:49;1.38;;;1.25;;
15126;SDS011;7664;52.008;4.748;2022-09-01T05:32:18;3.20;;;1.67;;
15126;SDS011;7664;52.008;4.748;2022-09-01T05:34:47;2.30;;;1.48;;
15126;SDS011;7664;52.008;4.748;2022-09-01T05:37:18;1.98;;;1.20;;
15126;SDS011;7664;52.008;4.748;2022-09-01T05:39:46;3.53;;;1.27;;
15126;SDS011;7664;52.008;4.748;2022-09-01T05:42:14;2.65;;;1.20;;
15126;SDS011;7664;52.008;4.748;2022-09-01T05:44:41;3.45;;;1.52;;
15126;SDS011;7664;52.008;4.748;2022-09-01T05:47:10;2.50;;;1.08;;
15126;SDS011;7664;52.008;4.748;2022-09-01T05:49:47;2.92;;;1.17;;
15126;SDS011;7664;52.008;4.748;2022-09-01T05:52:16;3.53;;;1.30;;
15126;SDS011;7664;52.008;4.748;2022-09-01T05:54:50;3.08;;;1.55;;
15126;SDS011;7664;52.008;4.748;2022-09-01T05:57:21;5.05;;;1.85;;
15126;SDS011;7664;52.008;4.748;2022-09-01T05:59:59;2.25;;;1.52;;
15126;SDS011;7664;52.008;4.748;2022-09-01T06:02:28;2.17;;;1.50;;
15126;SDS011;7664;52.008;4.748;2022-09-01T06:04:57;1.88;;;1.20;;
15126;SDS011;7664;52.008;4.748;2022-09-01T06:07:25;4.15;;;1.52;;
15126;SDS011;7664;52.008;4.748;2022-09-01T06:09:53;2.10;;;1.50;;
15126;SDS011;7664;52.008;4.748;2022-09-01T06:12:22;5.47;;;1.65;;
15126;SDS011;7664;52.008;4.748;2022-09-01T06:14:51;2.20;;;1.33;;
15126;SDS011;7664;52.008;4.748;2022-09-01T06:17:21;1.33;;;1.20;;
15126;SDS011;7664;52.008;4.748;2022-09-01T06:19:51;2.05;;;1.10;;
15126;SDS011;7664;52.008;4.748;2022-09-01T06:22:22;1.67;;;1.50;;
15126;SDS011;7664;52.008;4.748;2022-09-01T06:24:51;2.08;;;1.13;;
15126;SDS011;7664;52.008;4.748;2022-09-01T06:27:26;1.65;;;1.20;;
15126;SDS011;7664;52.008;4.748;2022-09-01T06:29:55;2.08;;;1.20;;
15126;SDS011;7664;52.008;4.748;2022-09-01T06:32:23;1.80;;;1.17;;
15126;SDS011;7664;52.008;4.748;2022-09-01T06:34:52;1.55;;;1.00;;
15126;SDS011;7664;52.008;4.748;2022-09-01T06:37:24;2.55;;;1.13;;
15126;SDS011;7664;52.008;4.748;2022-09-01T06:39:53;2.42;;;1.33;;
15126;SDS011;7664;52.008;4.748;2022-09-01T06:42:22;1.52;;;0.90;;
15126;SDS011;7664;52.008;4.748;2022-09-01T06:44:50;1.27;;;0.98;;
15126;SDS011;7664;52.008;4.748;2022-09-01T06:47:18;2.95;;;1.23;;
15126;SDS011;7664;52.008;4.748;2022-09-01T06:49:46;2.08;;;1.20;;
15126;SDS011;7664;52.008;4.748;2022-09-01T06:52:18;1.45;;;1.13;;
15126;SDS011;7664;52.008;4.748;2022-09-01T06:54:50;1.17;;;0.95;;
15126;SDS011;7664;52.008;4.748;2022-09-01T06:57:18;3.38;;;1.30;;
15126;SDS011;7664;52.008;4.748;2022-09-01T07:00:08;2.47;;;1.00;;
15126;SDS011;7664;52.008;4.748;2022-09-01T07:02:44;1.98;;;1.30;;
15126;SDS011;7664;52.008;4.748;2022-09-01T07:05:14;1.48;;;1.08;;
15126;SDS011;7664;52.008;4.748;2022-09-01T07:08:04;5.72;;;1.27;;
15126;SDS011;7664;52.008;4.748;2022-09-01T07:10:38;4.75;;;1.73;;
15126;SDS011;7664;52.008;4.748;2022-09-01T07:13:30;3.35;;;1.13;;
15126;SDS011;7664;52.008;4.748;2022-09-01T07:16:00;2.35;;;1.13;;
15126;SDS011;7664;52.008;4.748;2022-09-01T07:18:49;1.17;;;0.90;;
15126;SDS011;7664;52.008;4.748;2022-09-01T07:21:25;1.50;;;0.93;;
15126;SDS011;7664;52.008;4.748;2022-09-01T07:24:07;4.32;;;0.90;;
15126;SDS011;7664;52.008;4.748;2022-09-01T07:26:56;1.58;;;0.90;;
15126;SDS011;7664;52.008;4.748;2022-09-01T07:29:33;2.97;;;1.23;;
15126;SDS011;7664;52.008;4.748;2022-09-01T07:32:01;1.90;;;1.23;;
15126;SDS011;7664;52.008;4.748;2022-09-01T07:34:50;2.25;;;1.00;;
15126;SDS011;7664;52.008;4.748;2022-09-01T07:37:20;1.15;;;0.90;;
15126;SDS011;7664;52.008;4.748;2022-09-01T07:40:10;1.20;;;0.80;;
15126;SDS011;7664;52.008;4.748;2022-09-01T07:43:00;0.90;;;0.90;;
15126;SDS011;7664;52.008;4.748;2022-09-01T07:45:33;5.57;;;1.77;;
15126;SDS011;7664;52.008;4.748;2022-09-01T07:48:13;2.40;;;1.08;;
15126;SDS011;7664;52.008;4.748;2022-09-01T07:51:05;2.58;;;1.25;;
15126;SDS011;7664;52.008;4.748;2022-09-01T07:53:53;1.63;;;0.93;;
15126;SDS011;7664;52.008;4.748;2022-09-01T07:56:22;1.98;;;1.27;;
15126;SDS011;7664;52.008;4.748;2022-09-01T07:58:52;2.45;;;1.10;;
15126;SDS011;7664;52.008;4.748;2022-09-01T08:01:21;1.33;;;1.10;;
15126;SDS011;7664;52.008;4.748;2022-09-01T08:03:51;2.25;;;1.35;;
15126;SDS011;7664;52.008;4.748;2022-09-01T08:06:21;1.35;;;1.02;;
15126;SDS011;7664;52.008;4.748;2022-09-01T08:09:03;1.10;;;0.90;;
15126;SDS011;7664;52.008;4.748;2022-09-01T08:11:36;3.95;;;1.15;;
15126;SDS011;7664;52.008;4.748;2022-09-01T08:14:26;2.22;;;0.80;;
15126;SDS011;7664;52.008;4.748;2022-09-01T08:16:59;1.67;;;1.00;;
15126;SDS011;7664;52.008;4.748;2022-09-01T08:19:48;1.23;;;0.93;;
15126;SDS011;7664;52.008;4.748;2022-09-01T08:22:17;2.25;;;1.27;;
15126;SDS011;7664;52.008;4.748;2022-09-01T08:24:48;2.28;;;0.90;;
15126;SDS011;7664;52.008;4.748;2022-09-01T08:27:17;3.08;;;1.10;;
15126;SDS011;7664;52.008;4.748;2022-09-01T08:29:46;3.15;;;1.05;;
15126;SDS011;7664;52.008;4.748;2022-09-01T08:32:14;1.13;;;1.05;;
15126;SDS011;7664;52.008;4.748;2022-09-01T08:34:42;1.73;;;0.82;;
15126;SDS011;7664;52.008;4.748;2022-09-01T08:37:10;3.97;;;0.93;;
15126;SDS011;7664;52.008;4.748;2022-09-01T08:39:38;1.83;;;1.40;;
15126;SDS011;7664;52.008;4.748;2022-09-01T08:42:10;2.88;;;1.08;;
15126;SDS011;7664;52.008;4.748;2022-09-01T08:44:49;0.88;;;0.88;;
15126;SDS011;7664;52.008;4.748;2022-09-01T08:47:23;2.28;;;1.00;;
15126;SDS011;7664;52.008;4.748;2022-09-01T08:50:09;1.73;;;1.30;;
15126;SDS011;7664;52.008;4.748;2022-09-01T08:52:39;1.60;;;1.40;;
15126;SDS011;7664;52.008;4.748;2022-09-01T08:55:12;1.70;;;0.82;;
15126;SDS011;7664;52.008;4.748;2022-09-01T08:57:47;4.00;;;0.90;;
15126;SDS011;7664;52.008;4.748;2022-09-01T09:00:26;1.35;;;1.08;;
15126;SDS011;7664;52.008;4.748;2022-09-01T09:02:58;1.75;;;1.02;;
15126;SDS011;7664;52.008;4.748;2022-09-01T09:05:41;1.73;;;0.77;;
15126;SDS011;7664;52.008;4.748;2022-09-01T09:08:32;2.45;;;1.15;;
15126;SDS011;7664;52.008;4.748;2022-09-01T09:11:18;1.23;;;0.90;;
15126;SDS011;7664;52.008;4.748;2022-09-01T09:14:14;1.08;;;0.95;;
15126;SDS011;7664;52.008;4.748;2022-09-01T09:16:54;1.23;;;0.80;;
15126;SDS011;7664;52.008;4.748;2022-09-01T09:19:23;1.38;;;0.85;;
15126;SDS011;7664;52.008;4.748;2022-09-01T09:21:56;1.60;;;1.00;;
15126;SDS011;7664;52.008;4.748;2022-09-01T09:24:28;1.55;;;0.93;;
15126;SDS011;7664;52.008;4.748;2022-09-01T09:27:15;1.13;;;0.60;;
15126;SDS011;7664;52.008;4.748;2022-09-01T09:29:46;1.75;;;1.23;;
15126;SDS011;7664;52.008;4.748;2022-09-01T09:32:17;9.07;;;2.08;;
15126;SDS011;7664;52.008;4.748;2022-09-01T09:35:11;1.05;;;0.73;;
15126;SDS011;7664;52.008;4.748;2022-09-01T09:37:46;1.50;;;0.80;;
15126;SDS011;7664;52.008;4.748;2022-09-01T09:40:15;1.00;;;0.70;;
15126;SDS011;7664;52.008;4.748;2022-09-01T09:42:58;1.13;;;0.70;;
15126;SDS011;7664;52.008;4.748;2022-09-01T09:45:34;0.70;;;0.60;;
15126;SDS011;7664;52.008;4.748;2022-09-01T09:48:09;0.80;;;0.38;;
15126;SDS011;7664;52.008;4.748;2022-09-01T09:50:54;3.20;;;0.75;;
15126;SDS011;7664;52.008;4.748;2022-09-01T09:53:25;0.70;;;0.50;;
15126;SDS011;7664;52.008;4.748;2022-09-01T09:55:56;0.98;;;0.63;;
15126;SDS011;7664;52.008;4.748;2022-09-01T09:58:27;1.30;;;0.57;;
15126;SDS011;7664;52.008;4.748;2022-09-01T10:01:02;1.60;;;0.60;;
15126;SDS011;7664;52.008;4.748;2022-09-01T10:03:35;1.50;;;0.70;;
15126;SDS011;7664;52.008;4.748;2022-09-01T10:06:08;2.78;;;0.50;;
15126;SDS011;7664;52.008;4.748;2022-09-01T10:08:39;0.70;;;0.55;;
15126;SDS011;7664;52.008;4.748;2022-09-01T10:11:24;2.88;;;0.43;;
15126;SDS011;7664;52.008;4.748;2022-09-01T10:14:01;4.13;;;0.90;;
15126;SDS011;7664;52.008;4.748;2022-09-01T10:16:33;0.35;;;0.35;;
15126;SDS011;7664;52.008;4.748;2022-09-01T10:19:06;1.65;;;0.70;;
15126;SDS011;7664;52.008;4.748;2022-09-01T10:21:42;1.88;;;0.68;;
15126;SDS011;7664;52.008;4.748;2022-09-01T10:24:14;1.35;;;0.70;;
15126;SDS011;7664;52.008;4.748;2022-09-01T10:26:48;1.35;;;0.80;;
15126;SDS011;7664;52.008;4.748;2022-09-01T10:29:19;2.10;;;0.70;;
15126;SDS011;7664;52.008;4.748;2022-09-01T10:31:50;2.00;;;0.47;;
15126;SDS011;7664;52.008;4.748;2022-09-01T10:34:42;0.40;;;0.40;;
15126;SDS011;7664;52.008;4.748;2022-09-01T10:37:12;1.30;;;0.57;;
15126;SDS011;7664;52.008;4.748;2022-09-01T10:42:39;0.80;;;0.50;;
15126;SDS011;7664;52.008;4.748;2022-09-01T10:45:18;0.57;;;0.40;;
15126;SDS011;7664;52.008;4.748;2022-09-01T10:47:56;0.68;;;0.60;;
15126;SDS011;7664;52.008;4.748;2022-09-01T10:50:40;0.85;;;0.40;;
15126;SDS011;7664;52.008;4.748;2022-09-01T10:53:08;0.50;;;0.50;;
15126;SDS011;7664;52.008;4.748;2022-09-01T10:55:43;0.88;;;0.68;;
15126;SDS011;7664;52.008;4.748;2022-09-01T10:58:32;0.63;;;0.57;;
15126;SDS011;7664;52.008;4.748;2022-09-01T11:05:11;1.02;;;0.70;;
15126;SDS011;7664;52.008;4.748;2022-09-01T11:07:43;0.90;;;0.50;;
15126;SDS011;7664;52.008;4.748;2022-09-01T11:10:41;0.73;;;0.50;;
15126;SDS011;7664;52.008;4.748;2022-09-01T11:16:29;1.63;;;0.60;;
15126;SDS011;7664;52.008;4.748;2022-09-01T11:19:23;1.10;;;0.50;;
15126;SDS011;7664;52.008;4.748;2022-09-01T11:22:07;1.25;;;0.63;;
15126;SDS011;7664;52.008;4.748;2022-09-01T11:25:13;0.73;;;0.68;;
15126;SDS011;7664;52.008;4.748;2022-09-01T11:31:14;0.77;;;0.50;;
15126;SDS011;7664;52.008;4.748;2022-09-01T11:33:57;1.00;;;0.57;;
15126;SDS011;7664;52.008;4.748;2022-09-01T11:36:45;1.55;;;0.40;;
15126;SDS011;7664;52.008;4.748;2022-09-01T11:42:19;0.77;;;0.70;;
15126;SDS011;7664;52.008;4.748;2022-09-01T11:44:54;1.30;;;0.47;;
15126;SDS011;7664;52.008;4.748;2022-09-01T11:47:26;0.50;;;0.50;;
15126;SDS011;7664;52.008;4.748;2022-09-01T11:49:58;1.23;;;0.52;;
15126;SDS011;7664;52.008;4.748;2022-09-01T11:52:28;2.63;;;0.52;;
15126;SDS011;7664;52.008;4.748;2022-09-01T11:54:58;0.52;;;0.50;;
15126;SDS011;7664;52.008;4.748;2022-09-01T11:57:29;0.88;;;0.40;;
15126;SDS011;7664;52.008;4.748;2022-09-01T11:59:59;1.58;;;0.65;;
15126;SDS011;7664;52.008;4.748;2022-09-01T12:02:31;0.70;;;0.45;;
15126;SDS011;7664;52.008;4.748;2022-09-01T12:05:03;2.22;;;0.63;;
15126;SDS011;7664;52.008;4.748;2022-09-01T12:07:55;0.50;;;0.32;;
15126;SDS011;7664;52.008;4.748;2022-09-01T12:10:28;0.85;;;0.55;;
15126;SDS011;7664;52.008;4.748;2022-09-01T12:13:00;1.00;;;0.50;;
15126;SDS011;7664;52.008;4.748;2022-09-01T12:15:30;2.00;;;0.45;;
15126;SDS011;7664;52.008;4.748;2022-09-01T12:18:13;0.68;;;0.45;;
15126;SDS011;7664;52.008;4.748;2022-09-01T12:20:45;0.93;;;0.38;;
15126;SDS011;7664;52.008;4.748;2022-09-01T12:23:22;0.93;;;0.20;;
15126;SDS011;7664;52.008;4.748;2022-09-01T12:25:52;1.30;;;0.70;;
15126;SDS011;7664;52.008;4.748;2022-09-01T12:28:23;0.75;;;0.22;;
15126;SDS011;7664;52.008;4.748;2022-09-01T12:30:57;1.75;;;0.70;;
15126;SDS011;7664;52.008;4.748;2022-09-01T12:33:26;1.52;;;0.63;;
15126;SDS011;7664;52.008;4.748;2022-09-01T12:38:41;1.85;;;0.30;;
15126;SDS011;7664;52.008;4.748;2022-09-01T12:41:21;2.05;;;0.50;;
15126;SDS011;7664;52.008;4.748;2022-09-01T12:46:56;1.00;;;0.60;;
15126;SDS011;7664;52.008;4.748;2022-09-01T12:49:33;1.83;;;0.75;;
15126;SDS011;7664;52.008;4.748;2022-09-01T12:52:16;1.75;;;0.60;;
15126;SDS011;7664;52.008;4.748;2022-09-01T12:54:51;0.68;;;0.38;;
15126;SDS011;7664;52.008;4.748;2022-09-01T12:57:34;0.52;;;0.47;;
15126;SDS011;7664;52.008;4.748;2022-09-01T13:00:06;1.02;;;0.50;;
15126;SDS011;7664;52.008;4.748;2022-09-01T13:02:41;2.63;;;0.50;;
15126;SDS011;7664;52.008;4.748;2022-09-01T13:05:22;1.20;;;0.60;;
15126;SDS011;7664;52.008;4.748;2022-09-01T13:07:58;0.90;;;0.40;;
15126;SDS011;7664;52.008;4.748;2022-09-01T13:10:29;1.00;;;0.47;;
15126;SDS011;7664;52.008;4.748;2022-09-01T13:12:59;3.10;;;0.90;;
15126;SDS011;7664;52.008;4.748;2022-09-01T13:15:29;0.52;;;0.30;;
15126;SDS011;7664;52.008;4.748;2022-09-01T13:17:57;0.57;;;0.40;;
15126;SDS011;7664;52.008;4.748;2022-09-01T13:20:25;0.93;;;0.40;;
15126;SDS011;7664;52.008;4.748;2022-09-01T13:22:53;0.60;;;0.50;;
15126;SDS011;7664;52.008;4.748;2022-09-01T13:25:21;0.80;;;0.57;;
15126;SDS011;7664;52.008;4.748;2022-09-01T13:27:50;0.75;;;0.40;;
15126;SDS011;7664;52.008;4.748;2022-09-01T13:30:21;0.43;;;0.30;;
15126;SDS011;7664;52.008;4.748;2022-09-01T13:32:55;1.35;;;0.50;;
15126;SDS011;7664;52.008;4.748;2022-09-01T13:35:43;0.30;;;0.30;;
15126;SDS011;7664;52.008;4.748;2022-09-01T13:38:11;0.95;;;0.60;;
15126;SDS011;7664;52.008;4.748;2022-09-01T13:40:41;2.40;;;0.95;;
15126;SDS011;7664;52.008;4.748;2022-09-01T13:43:12;0.88;;;0.40;;
15126;SDS011;7664;52.008;4.748;2022-09-01T13:45:41;0.28;;;0.28;;
15126;SDS011;7664;52.008;4.748;2022-09-01T13:48:12;0.20;;;0.20;;
15126;SDS011;7664;52.008;4.748;2022-09-01T13:50:42;0.43;;;0.30;;
15126;SDS011;7664;52.008;4.748;2022-09-01T13:53:31;1.70;;;0.80;;
15126;SDS011;7664;52.008;4.748;2022-09-01T13:55:59;0.85;;;0.55;;
15126;SDS011;7664;52.008;4.748;2022-09-01T13:58:27;0.20;;;0.20;;
15126;SDS011;7664;52.008;4.748;2022-09-01T14:00:55;1.75;;;0.30;;
15126;SDS011;7664;52.008;4.748;2022-09-01T14:03:26;0.93;;;0.38;;
15126;SDS011;7664;52.008;4.748;2022-09-01T14:05:57;0.70;;;0.30;;
15126;SDS011;7664;52.008;4.748;2022-09-01T14:08:25;0.50;;;0.28;;
15126;SDS011;7664;52.008;4.748;2022-09-01T14:10:53;0.30;;;0.30;;
15126;SDS011;7664;52.008;4.748;2022-09-01T14:13:22;1.15;;;0.30;;
15126;SDS011;7664;52.008;4.748;2022-09-01T14:15:51;1.08;;;0.65;;
15126;SDS011;7664;52.008;4.748;2022-09-01T14:18:20;0.93;;;0.50;;
15126;SDS011;7664;52.008;4.748;2022-09-01T14:20:50;0.55;;;0.30;;
15126;SDS011;7664;52.008;4.748;2022-09-01T14:23:19;0.50;;;0.30;;
15126;SDS011;7664;52.008;4.748;2022-09-01T14:25:47;1.45;;;0.95;;
15126;SDS011;7664;52.008;4.748;2022-09-01T14:28:19;2.83;;;1.30;;
15126;SDS011;7664;52.008;4.748;2022-09-01T14:30:49;0.90;;;0.30;;
15126;SDS011;7664;52.008;4.748;2022-09-01T14:33:16;0.95;;;0.40;;
15126;SDS011;7664;52.008;4.748;2022-09-01T14:35:46;3.08;;;1.20;;
15126;SDS011;7664;52.008;4.748;2022-09-01T14:38:17;0.98;;;0.50;;
15126;SDS011;7664;52.008;4.748;2022-09-01T14:40:46;1.13;;;0.70;;
15126;SDS011;7664;52.008;4.748;2022-09-01T14:43:17;2.13;;;0.90;;
15126;SDS011;7664;52.008;4.748;2022-09-01T14:45:48;1.80;;;0.45;;
15126;SDS011;7664;52.008;4.748;2022-09-01T14:48:17;1.15;;;0.40;;
15126;SDS011;7664;52.008;4.748;2022-09-01T14:50:47;0.50;;;0.30;;
15126;SDS011;7664;52.008;4.748;2022-09-01T14:53:17;0.30;;;0.28;;
15126;SDS011;7664;52.008;4.748;2022-09-01T14:55:45;0.93;;;0.32;;
15126;SDS011;7664;52.008;4.748;2022-09-01T14:58:17;0.68;;;0.38;;
15126;SDS011;7664;52.008;4.748;2022-09-01T15:00:46;1.77;;;0.32;;
15126;SDS011;7664;52.008;4.748;2022-09-01T15:03:14;0.88;;;0.38;;
15126;SDS011;7664;52.008;4.748;2022-09-01T15:05:48;2.53;;;0.55;;
15126;SDS011;7664;52.008;4.748;2022-09-01T15:08:17;1.23;;;0.75;;
15126;SDS011;7664;52.008;4.748;2022-09-01T15:10:46;2.15;;;0.88;;
15126;SDS011;7664;52.008;4.748;2022-09-01T15:13:14;0.98;;;0.57;;
15126;SDS011;7664;52.008;4.748;2022-09-01T15:15:42;1.25;;;0.50;;
15126;SDS011;7664;52.008;4.748;2022-09-01T15:18:10;2.95;;;1.23;;
15126;SDS011;7664;52.008;4.748;2022-09-01T15:20:39;1.17;;;0.75;;
15126;SDS011;7664;52.008;4.748;2022-09-01T15:23:16;1.05;;;0.60;;
15126;SDS011;7664;52.008;4.748;2022-09-01T15:25:47;2.00;;;0.60;;
15126;SDS011;7664;52.008;4.748;2022-09-01T15:28:17;1.52;;;0.95;;
15126;SDS011;7664;52.008;4.748;2022-09-01T15:30:46;1.45;;;1.05;;
15126;SDS011;7664;52.008;4.748;2022-09-01T15:33:14;1.98;;;0.57;;
15126;SDS011;7664;52.008;4.748;2022-09-01T15:35:43;2.53;;;0.60;;
15126;SDS011;7664;52.008;4.748;2022-09-01T15:38:11;1.58;;;0.60;;
15126;SDS011;7664;52.008;4.748;2022-09-01T15:40:45;1.40;;;0.95;;
15126;SDS011;7664;52.008;4.748;2022-09-01T15:43:23;1.75;;;1.20;;
15126;SDS011;7664;52.008;4.748;2022-09-01T15:45:52;1.25;;;0.75;;
15126;SDS011;7664;52.008;4.748;2022-09-01T15:48:23;4.65;;;0.80;;
15126;SDS011;7664;52.008;4.748;2022-09-01T15:50:51;4.40;;;0.55;;
15126;SDS011;7664;52.008;4.748;2022-09-01T15:53:20;1.52;;;0.40;;
15126;SDS011;7664;52.008;4.748;2022-09-01T15:55:49;1.00;;;0.60;;
15126;SDS011;7664;52.008;4.748;2022-09-01T15:58:17;0.90;;;0.35;;